createdAt,value
2022-08-26T00:02:01.880Z,41.81
2022-08-26T00:04:31.401Z,41.36
2022-08-26T00:06:58.886Z,40.45
2022-08-26T00:09:26.650Z,39.14
2022-08-26T00:11:55.788Z,39.18
2022-08-26T00:14:28.312Z,39.33
2022-08-26T00:16:59.685Z,39.99
2022-08-26T00:19:26.940Z,40.28
2022-08-26T00:21:54.248Z,39.54
2022-08-26T00:24:23.709Z,39.72
2022-08-26T00:26:51.485Z,39.78
2022-08-26T00:29:19.801Z,39.55
2022-08-26T00:31:48.874Z,40.38
2022-08-26T00:34:16.866Z,39.47
2022-08-26T00:36:47.229Z,39.46
2022-08-26T00:39:17.496Z,39.65
2022-08-26T00:41:47.775Z,39.46
2022-08-26T00:44:14.809Z,39.49
2022-08-26T00:46:46.814Z,39.30
2022-08-26T00:49:26.047Z,39.11
2022-08-26T00:51:59.964Z,39.20
2022-08-26T00:54:32.285Z,38.97
2022-08-26T00:57:03.949Z,39.16
2022-08-26T00:59:33.156Z,37.94
2022-08-26T01:02:03.205Z,38.09
2022-08-26T01:04:33.626Z,38.43
2022-08-26T01:07:01.564Z,38.96
2022-08-26T01:09:28.872Z,39.45
2022-08-26T01:12:00.461Z,39.11
2022-08-26T01:14:34.193Z,40.53
2022-08-26T01:17:07.247Z,39.05
2022-08-26T01:20:08.686Z,39.77
2022-08-26T01:22:55.181Z,39.08
2022-08-26T01:25:25.394Z,38.96
2022-08-26T01:27:57.561Z,39.97
2022-08-26T01:30:28.185Z,39.87
2022-08-26T01:32:57.803Z,40.32
2022-08-26T01:35:28.305Z,40.30
2022-08-26T01:37:56.552Z,39.48
2022-08-26T01:40:28.466Z,39.33
2022-08-26T01:42:56.172Z,40.07
2022-08-26T01:45:28.671Z,39.51
2022-08-26T01:47:59.257Z,39.51
2022-08-26T01:50:31.298Z,39.98
2022-08-26T01:53:02.777Z,39.75
2022-08-26T01:55:34.112Z,39.76
2022-08-26T01:58:06.630Z,39.62
2022-08-26T02:00:35.634Z,39.17
2022-08-26T02:03:17.888Z,40.15
2022-08-26T02:05:48.640Z,39.50
2022-08-26T02:08:24.668Z,39.65
2022-08-26T02:10:54.917Z,39.48
2022-08-26T02:13:25.471Z,38.93
2022-08-26T02:15:53.747Z,38.76
2022-08-26T02:18:23.083Z,38.78
2022-08-26T02:20:54.196Z,38.85
2022-08-26T02:23:21.683Z,38.40
2022-08-26T02:26:17.888Z,38.67
2022-08-26T02:28:58.476Z,38.24
2022-08-26T02:31:27.935Z,37.94
2022-08-26T02:34:06.664Z,38.15
2022-08-26T02:36:33.695Z,37.62
2022-08-26T02:39:01.720Z,37.20
2022-08-26T02:41:28.643Z,37.64
2022-08-26T02:43:56.081Z,38.14
2022-08-26T02:46:29.832Z,38.36
2022-08-26T02:48:57.908Z,38.59
2022-08-26T02:51:25.225Z,37.85
2022-08-26T02:53:52.168Z,38.04
2022-08-26T02:56:19.113Z,37.97
2022-08-26T02:58:46.256Z,38.97
2022-08-26T03:01:27.072Z,38.67
2022-08-26T03:03:55.062Z,39.33
2022-08-26T03:06:22.309Z,39.69
2022-08-26T03:08:49.750Z,39.73
2022-08-26T03:11:17.236Z,39.99
2022-08-26T03:13:45.916Z,40.40
2022-08-26T03:16:13.660Z,39.76
2022-08-26T03:18:41.434Z,39.87
2022-08-26T03:21:11.202Z,39.11
2022-08-26T03:23:41.317Z,39.65
2022-08-26T03:26:11.341Z,39.71
2022-08-26T03:29:02.586Z,40.14
2022-08-26T03:31:30.225Z,40.47
2022-08-26T03:33:59.727Z,39.36
2022-08-26T03:36:27.644Z,39.91
2022-08-26T03:38:54.719Z,39.67
2022-08-26T03:41:21.916Z,39.82
2022-08-26T03:43:50.802Z,39.84
2022-08-26T03:46:18.554Z,39.46
2022-08-26T03:48:45.908Z,40.11
2022-08-26T03:51:18.455Z,39.98
2022-08-26T03:53:46.476Z,40.18
2022-08-26T03:56:13.461Z,40.15
2022-08-26T03:58:42.982Z,39.74
2022-08-26T04:01:11.502Z,40.00
2022-08-26T04:03:57.518Z,40.27
2022-08-26T04:06:34.991Z,39.53
2022-08-26T04:09:07.601Z,39.32
2022-08-26T04:11:38.218Z,39.65
2022-08-26T04:14:14.306Z,40.10
2022-08-26T04:16:48.171Z,40.13
2022-08-26T04:19:17.799Z,40.32
2022-08-26T04:21:53.101Z,40.34
2022-08-26T04:24:24.621Z,40.56
2022-08-26T04:26:54.349Z,40.08
2022-08-26T04:29:25.492Z,39.66
2022-08-26T04:31:57.301Z,39.17
2022-08-26T04:34:28.634Z,39.47
2022-08-26T04:37:00.023Z,39.10
2022-08-26T04:39:28.024Z,39.38
2022-08-26T04:41:55.840Z,39.21
2022-08-26T04:44:29.941Z,39.46
2022-08-26T04:46:58.682Z,40.15
2022-08-26T04:49:26.924Z,39.43
2022-08-26T04:51:55.023Z,39.45
2022-08-26T04:54:25.086Z,39.56
2022-08-26T04:56:53.242Z,40.40
2022-08-26T04:59:21.292Z,40.21
2022-08-26T05:01:52.009Z,39.92
2022-08-26T05:04:21.222Z,39.43
2022-08-26T05:06:49.041Z,40.24
2022-08-26T05:09:18.746Z,39.70
2022-08-26T05:11:48.572Z,39.18
2022-08-26T05:14:19.640Z,38.72
2022-08-26T05:16:47.885Z,38.48
2022-08-26T05:19:19.177Z,37.79
2022-08-26T05:21:49.853Z,39.99
2022-08-26T05:24:18.481Z,39.01
2022-08-26T05:26:48.422Z,35.51
2022-08-26T05:29:16.221Z,35.75
2022-08-26T05:31:44.856Z,37.53
2022-08-26T05:34:12.720Z,38.66
2022-08-26T05:36:41.370Z,39.42
2022-08-26T05:39:10.637Z,39.73
2022-08-26T05:41:41.228Z,41.89
2022-08-26T05:44:15.538Z,39.24
2022-08-26T05:46:44.835Z,39.33
2022-08-26T05:49:15.897Z,39.73
2022-08-26T05:51:47.726Z,40.62
2022-08-26T05:54:21.700Z,40.65
2022-08-26T05:56:49.796Z,42.19
2022-08-26T05:59:28.914Z,41.36
2022-08-26T06:01:56.524Z,40.54
2022-08-26T06:04:26.998Z,41.25
2022-08-26T06:06:57.585Z,41.46
2022-08-26T06:09:25.490Z,41.59
2022-08-26T06:11:53.010Z,42.36
2022-08-26T06:14:22.202Z,41.42
2022-08-26T06:16:49.915Z,39.58
2022-08-26T06:19:17.493Z,39.65
2022-08-26T06:21:47.661Z,40.03
2022-08-26T06:24:41.162Z,41.58
2022-08-26T06:27:15.308Z,42.31
2022-08-26T06:29:42.712Z,42.35
2022-08-26T06:32:09.840Z,42.99
2022-08-26T06:34:36.949Z,42.53
2022-08-26T06:37:06.675Z,43.40
2022-08-26T06:39:34.454Z,42.72
2022-08-26T06:42:06.275Z,42.72
2022-08-26T06:44:36.361Z,42.02
2022-08-26T06:47:04.463Z,41.90
2022-08-26T06:49:34.202Z,41.39
2022-08-26T06:52:05.512Z,42.56
2022-08-26T06:54:35.095Z,41.91
2022-08-26T06:57:03.782Z,40.84
2022-08-26T06:59:31.617Z,41.57
2022-08-26T07:01:59.120Z,40.62
2022-08-26T07:04:29.364Z,39.54
2022-08-26T07:06:57.047Z,39.92
2022-08-26T07:09:30.572Z,40.56
2022-08-26T07:11:58.001Z,40.62
2022-08-26T07:14:26.362Z,40.43
2022-08-26T07:16:54.739Z,40.31
2022-08-26T07:19:31.015Z,41.37
2022-08-26T07:22:06.458Z,42.30
2022-08-26T07:24:38.563Z,42.12
2022-08-26T07:27:10.880Z,42.03
2022-08-26T07:29:42.080Z,42.09
2022-08-26T07:32:11.755Z,42.16
2022-08-26T07:34:40.062Z,41.04
2022-08-26T07:37:09.522Z,41.49
2022-08-26T07:39:37.374Z,41.29
2022-08-26T07:42:08.222Z,41.60
2022-08-26T07:44:41.106Z,42.51
2022-08-26T07:47:25.565Z,41.45
2022-08-26T07:49:57.388Z,42.25
2022-08-26T07:52:27.330Z,43.50
2022-08-26T07:54:58.818Z,44.31
2022-08-26T07:57:29.696Z,44.79
2022-08-26T08:00:04.416Z,46.51
2022-08-26T08:02:39.840Z,43.95
2022-08-26T08:05:08.319Z,44.57
2022-08-26T08:07:44.501Z,44.94
2022-08-26T08:10:21.760Z,42.52
2022-08-26T08:12:53.620Z,43.01
2022-08-26T08:15:25.121Z,43.83
2022-08-26T08:18:00.910Z,45.44
2022-08-26T08:20:33.808Z,44.68
2022-08-26T08:23:05.280Z,45.18
2022-08-26T08:25:35.093Z,44.04
2022-08-26T08:28:06.835Z,44.53
2022-08-26T08:30:41.365Z,45.99
2022-08-26T08:33:10.217Z,44.27
2022-08-26T08:35:41.096Z,46.74
2022-08-26T08:38:09.740Z,47.05
2022-08-26T08:40:42.617Z,44.97
2022-08-26T08:43:37.729Z,44.46
2022-08-26T08:46:13.244Z,46.32
2022-08-26T08:48:57.635Z,46.20
2022-08-26T08:51:48.434Z,46.75
2022-08-26T08:54:16.141Z,45.41
2022-08-26T08:56:57.418Z,45.33
2022-08-26T08:59:32.707Z,47.54
2022-08-26T09:02:20.120Z,44.92
2022-08-26T09:05:03.521Z,45.93
2022-08-26T09:07:52.763Z,48.56
2022-08-26T09:10:44.115Z,47.56
2022-08-26T09:13:16.781Z,47.11
2022-08-26T09:16:10.565Z,47.91
2022-08-26T09:19:18.827Z,48.09
2022-08-26T09:21:46.655Z,47.86
2022-08-26T09:24:22.880Z,49.03
2022-08-26T09:26:59.443Z,49.58
2022-08-26T09:29:41.767Z,51.26
2022-08-26T09:32:26.871Z,52.23
2022-08-26T09:35:10.928Z,52.16
2022-08-26T09:37:41.330Z,51.25
2022-08-26T09:40:19.108Z,53.66
2022-08-26T09:42:48.215Z,53.82
2022-08-26T09:45:30.314Z,52.20
2022-08-26T09:48:01.336Z,51.66
2022-08-26T09:50:39.428Z,50.81
2022-08-26T09:53:28.842Z,49.74
2022-08-26T09:56:25.713Z,48.75
2022-08-26T09:58:56.163Z,46.12
2022-08-26T10:01:26.830Z,46.17
2022-08-26T10:04:26.765Z,46.20
2022-08-26T10:07:03.350Z,46.61
2022-08-26T10:09:44.536Z,45.63
2022-08-26T10:12:21.542Z,46.12
2022-08-26T10:14:57.900Z,45.72
2022-08-26T10:17:51.824Z,47.01
2022-08-26T10:20:38.576Z,46.61
2022-08-26T10:23:15.931Z,46.45
2022-08-26T10:25:53.790Z,45.91
2022-08-26T10:29:13.555Z,45.17
2022-08-26T10:32:16.894Z,42.50
2022-08-26T10:34:47.229Z,42.35
2022-08-26T10:37:36.829Z,42.58
2022-08-26T10:40:04.449Z,41.42
2022-08-26T10:42:43.603Z,41.30
2022-08-26T10:45:20.329Z,42.06
2022-08-26T10:48:07.555Z,41.40
2022-08-26T10:50:44.129Z,47.44
2022-08-26T10:53:32.884Z,47.41
2022-08-26T10:56:51.533Z,47.89
2022-08-26T10:59:39.675Z,47.38
2022-08-26T11:02:15.696Z,47.26
2022-08-26T11:04:56.713Z,46.48
2022-08-26T11:07:44.245Z,47.46
2022-08-26T11:10:23.857Z,47.50
2022-08-26T11:13:01.268Z,48.21
2022-08-26T11:15:34.229Z,42.08
2022-08-26T11:18:05.083Z,42.96
2022-08-26T11:24:53.845Z,45.89
2022-08-26T11:27:23.528Z,44.85
2022-08-26T11:30:19.773Z,44.28
2022-08-26T11:32:56.379Z,45.00
2022-08-26T11:35:24.674Z,43.03
2022-08-26T11:38:06.841Z,42.10
2022-08-26T11:40:38.688Z,41.30
2022-08-26T11:43:22.267Z,39.71
2022-08-26T11:46:16.828Z,39.42
2022-08-26T11:48:46.649Z,39.01
2022-08-26T11:51:24.990Z,38.73
2022-08-26T11:54:17.004Z,39.63
2022-08-26T11:56:59.514Z,39.41
2022-08-26T11:59:39.108Z,39.29
2022-08-26T12:02:18.195Z,38.67
2022-08-26T12:04:52.020Z,38.90
2022-08-26T12:07:25.098Z,39.31
2022-08-26T12:10:02.121Z,38.86
2022-08-26T12:12:37.465Z,37.88
2022-08-26T12:15:23.283Z,38.12
2022-08-26T12:17:54.580Z,38.37
2022-08-26T12:20:48.861Z,38.49
2022-08-26T12:23:40.733Z,38.40
2022-08-26T12:26:13.519Z,37.77
2022-08-26T12:28:48.774Z,37.65
2022-08-26T12:31:29.273Z,37.71
2022-08-26T12:33:59.407Z,37.67
2022-08-26T12:36:48.736Z,37.11
2022-08-26T12:39:28.967Z,37.25
2022-08-26T12:41:59.279Z,37.36
2022-08-26T12:44:53.718Z,37.11
2022-08-26T12:47:42.703Z,38.10
2022-08-26T12:50:31.008Z,38.66
2022-08-26T12:53:22.392Z,38.44
2022-08-26T12:55:54.058Z,38.21
2022-08-26T12:58:23.460Z,38.42
2022-08-26T13:01:08.881Z,37.28
2022-08-26T13:03:38.974Z,37.84
2022-08-26T13:06:19.953Z,37.79
2022-08-26T13:09:04.443Z,36.51
2022-08-26T13:11:45.370Z,37.17
2022-08-26T13:14:24.312Z,37.37
2022-08-26T13:16:54.116Z,36.81
2022-08-26T13:19:24.259Z,36.74
2022-08-26T13:21:56.991Z,36.89
2022-08-26T13:24:48.728Z,36.47
2022-08-26T13:27:20.675Z,36.63
2022-08-26T13:29:48.784Z,36.54
2022-08-26T13:32:18.266Z,36.30
2022-08-26T13:34:51.280Z,36.65
2022-08-26T13:37:34.349Z,37.46
2022-08-26T13:40:07.249Z,36.91
2022-08-26T13:42:35.839Z,37.04
2022-08-26T13:45:06.943Z,36.87
2022-08-26T13:47:35.235Z,36.00
2022-08-26T13:50:06.284Z,36.65
2022-08-26T14:59:07.378Z,34.59
2022-08-26T15:01:38.397Z,34.60
2022-08-26T15:04:08.496Z,35.23
2022-08-26T15:06:36.431Z,34.99
2022-08-26T15:09:06.611Z,35.65
2022-08-26T15:11:43.502Z,36.18
2022-08-26T15:14:14.755Z,35.93
2022-08-26T15:16:50.716Z,35.90
2022-08-26T15:19:20.844Z,36.31
2022-08-26T15:21:50.114Z,36.15
2022-08-26T15:24:20.312Z,36.78
2022-08-26T15:26:51.823Z,37.09
2022-08-26T15:29:24.153Z,36.76
2022-08-26T15:31:51.537Z,37.15
2022-08-26T15:34:22.356Z,36.36
2022-08-26T15:36:49.475Z,36.41
2022-08-26T15:39:18.157Z,36.17
2022-08-26T15:41:46.957Z,36.54
2022-08-26T15:44:18.513Z,36.70
2022-08-26T15:46:52.472Z,36.54
2022-08-26T15:49:23.755Z,36.95
2022-08-26T15:51:51.131Z,37.41
2022-08-26T15:54:23.000Z,37.41
2022-08-26T15:56:52.543Z,37.88
2022-08-26T15:59:21.902Z,37.79
2022-08-26T16:01:51.761Z,37.22
2022-08-26T16:04:20.605Z,37.63
2022-08-26T16:06:50.418Z,37.63
2022-08-26T16:09:21.185Z,37.64
2022-08-26T16:11:48.574Z,37.57
2022-08-26T16:14:15.696Z,37.94
2022-08-26T16:16:43.914Z,37.83
2022-08-26T16:19:11.733Z,38.10
2022-08-26T16:21:40.151Z,38.24
2022-08-26T16:24:12.069Z,38.18
2022-08-26T16:26:41.383Z,37.95
2022-08-26T16:29:13.184Z,38.31
2022-08-26T16:31:42.516Z,37.92
2022-08-26T16:34:10.267Z,37.82
2022-08-26T16:36:38.759Z,37.90
2022-08-26T16:39:07.539Z,37.82
2022-08-26T16:41:35.841Z,38.12
2022-08-26T16:44:03.898Z,37.88
2022-08-26T16:46:31.238Z,38.12
2022-08-26T16:49:03.805Z,37.74
2022-08-26T16:51:32.889Z,38.10
2022-08-26T16:54:07.421Z,37.74
2022-08-26T16:56:36.455Z,38.95
2022-08-26T16:59:06.631Z,39.58
2022-08-26T17:01:34.314Z,39.29
2022-08-26T17:04:01.272Z,39.17
2022-08-26T17:06:28.759Z,39.77
2022-08-26T17:08:55.807Z,38.31
2022-08-26T17:11:22.934Z,39.17
2022-08-26T17:13:52.679Z,39.73
2022-08-26T17:16:26.601Z,40.19
2022-08-26T17:19:00.337Z,40.39
2022-08-26T17:21:29.071Z,40.27
2022-08-26T17:23:57.120Z,40.35
2022-08-26T17:26:27.120Z,41.30
2022-08-26T17:28:55.427Z,42.05
2022-08-26T17:31:23.785Z,41.70
2022-08-26T17:33:53.437Z,41.28
2022-08-26T17:36:23.105Z,40.96
2022-08-26T17:38:56.202Z,42.01
2022-08-26T17:41:23.148Z,43.94
2022-08-26T17:43:50.350Z,43.93
2022-08-26T17:46:17.397Z,45.29
2022-08-26T17:48:47.192Z,45.42
2022-08-26T17:51:17.171Z,45.58
2022-08-26T17:53:44.137Z,45.79
2022-08-26T17:56:14.394Z,46.13
2022-08-26T17:58:47.999Z,45.84
2022-08-26T18:01:19.949Z,45.47
2022-08-26T18:03:47.030Z,45.47
2022-08-26T18:06:14.583Z,44.88
2022-08-26T18:08:42.349Z,44.80
2022-08-26T18:11:17.473Z,44.98
2022-08-26T18:13:47.117Z,44.47
2022-08-26T18:16:17.132Z,43.88
2022-08-26T18:18:44.709Z,44.65
2022-08-26T18:21:32.080Z,43.70
2022-08-26T18:23:59.464Z,43.46
2022-08-26T18:26:31.388Z,43.88
2022-08-26T18:28:59.056Z,44.38
2022-08-26T18:31:26.886Z,44.23
2022-08-26T18:33:54.377Z,45.06
2022-08-26T18:36:33.209Z,45.35
2022-08-26T18:39:06.169Z,45.74
2022-08-26T18:41:39.935Z,45.95
2022-08-26T18:44:08.559Z,46.38
2022-08-26T18:46:41.925Z,46.44
2022-08-26T18:49:12.594Z,46.19
2022-08-26T18:51:40.196Z,46.13
2022-08-26T18:54:08.467Z,45.35
2022-08-26T18:56:37.344Z,45.38
2022-08-26T18:59:07.461Z,45.59
2022-08-26T19:01:40.677Z,45.06
2022-08-26T19:04:15.362Z,45.48
2022-08-26T19:06:47.521Z,45.59
2022-08-26T19:09:17.918Z,46.28
2022-08-26T19:11:47.040Z,47.10
2022-08-26T19:14:17.204Z,47.78
2022-08-26T19:16:46.619Z,47.90
